createdAt,value
2023-12-23T00:00:48.023Z,5.00
2023-12-23T00:03:15.451Z,9.20
2023-12-23T00:05:43.380Z,8.00
2023-12-23T00:08:10.197Z,4.20
2023-12-23T00:10:37.076Z,4.00
2023-12-23T00:13:04.147Z,7.10
2023-12-23T00:15:30.898Z,10.60
2023-12-23T00:17:58.165Z,7.50
2023-12-23T00:20:25.402Z,6.90
2023-12-23T00:22:52.223Z,8.00
2023-12-23T00:25:18.923Z,6.50
2023-12-23T00:27:45.645Z,5.80
2023-12-23T00:30:13.777Z,8.30
2023-12-23T00:32:41.154Z,6.80
2023-12-23T00:35:08.687Z,7.30
2023-12-23T00:37:35.652Z,6.20
2023-12-23T00:40:02.792Z,8.40
2023-12-23T00:42:30.036Z,5.50
2023-12-23T00:44:56.854Z,6.30
2023-12-23T00:47:23.643Z,9.20
2023-12-23T00:49:50.455Z,6.70
2023-12-23T00:52:17.180Z,5.70
2023-12-23T00:54:43.846Z,6.90
2023-12-23T00:57:10.553Z,5.20
2023-12-23T00:59:38.291Z,6.60
2023-12-23T01:02:05.104Z,5.00
2023-12-23T01:04:32.107Z,6.80
2023-12-23T01:06:58.919Z,7.60
2023-12-23T01:09:25.679Z,7.90
2023-12-23T01:11:52.375Z,7.10
2023-12-23T01:14:19.435Z,8.80
2023-12-23T01:16:46.265Z,7.00
2023-12-23T01:19:13.096Z,5.80
2023-12-23T01:21:39.924Z,6.50
2023-12-23T01:24:06.644Z,7.80
2023-12-23T01:26:33.476Z,9.40
2023-12-23T01:29:01.117Z,8.80
2023-12-23T01:31:28.460Z,6.50
2023-12-23T01:33:55.315Z,6.40
2023-12-23T01:36:23.062Z,6.80
2023-12-23T01:38:49.911Z,6.40
2023-12-23T01:41:16.680Z,7.10
2023-12-23T01:43:43.482Z,8.60
2023-12-23T01:46:10.931Z,6.90
2023-12-23T01:48:41.658Z,7.30
2023-12-23T01:51:10.545Z,11.70
2023-12-23T01:53:37.744Z,5.90
2023-12-23T01:56:04.946Z,5.20
2023-12-23T01:58:32.143Z,7.00
2023-12-23T02:00:58.942Z,6.30
2023-12-23T02:03:26.928Z,5.40
2023-12-23T02:05:53.750Z,5.40
2023-12-23T02:08:20.662Z,5.60
2023-12-23T02:10:54.543Z,8.30
2023-12-23T02:13:28.385Z,5.10
2023-12-23T02:15:57.078Z,3.10
2023-12-23T02:18:26.763Z,5.50
2023-12-23T02:20:55.298Z,5.50
2023-12-23T02:23:22.228Z,6.30
2023-12-23T02:26:00.595Z,6.90
2023-12-23T02:28:27.393Z,6.70
2023-12-23T02:30:55.175Z,6.30
2023-12-23T02:33:22.299Z,4.90
2023-12-23T02:35:53.188Z,4.70
2023-12-23T02:38:22.053Z,3.00
2023-12-23T02:40:49.155Z,6.20
2023-12-23T02:43:16.837Z,4.20
2023-12-23T02:45:43.555Z,6.30
2023-12-23T02:48:10.463Z,5.10
2023-12-23T02:50:37.339Z,8.30
2023-12-23T02:53:04.246Z,3.50
2023-12-23T02:55:32.639Z,3.60
2023-12-23T02:57:59.347Z,4.80
2023-12-23T03:00:26.192Z,3.90
2023-12-23T03:02:53.175Z,2.80
2023-12-23T03:05:20.198Z,7.10
2023-12-23T03:07:48.444Z,8.60
2023-12-23T03:10:15.836Z,3.80
2023-12-23T03:12:42.544Z,3.90
2023-12-23T03:15:09.722Z,3.40
2023-12-23T03:17:36.562Z,4.40
2023-12-23T03:20:03.754Z,2.80
2023-12-23T03:22:30.524Z,4.20
2023-12-23T03:24:57.217Z,6.00
2023-12-23T03:27:23.943Z,3.70
2023-12-23T03:29:50.680Z,6.20
2023-12-23T03:32:17.379Z,5.10
2023-12-23T03:34:44.117Z,3.90
2023-12-23T03:37:10.852Z,3.60
2023-12-23T03:39:37.647Z,3.40
2023-12-23T03:42:04.587Z,2.60
2023-12-23T03:44:31.362Z,5.00
2023-12-23T03:46:58.148Z,3.30
2023-12-23T03:49:24.919Z,3.70
2023-12-23T03:51:51.773Z,3.90
2023-12-23T03:54:18.462Z,4.00
2023-12-23T03:56:45.873Z,3.30
2023-12-23T03:59:13.891Z,3.70
2023-12-23T04:01:42.944Z,3.40
2023-12-23T04:04:10.124Z,3.60
2023-12-23T04:06:36.913Z,3.70
2023-12-23T04:09:04.140Z,3.70
2023-12-23T04:11:30.823Z,2.40
2023-12-23T04:13:57.536Z,2.90
2023-12-23T04:16:24.242Z,3.70
2023-12-23T04:18:50.954Z,3.80
2023-12-23T04:21:17.716Z,2.20
2023-12-23T04:23:44.388Z,3.40
2023-12-23T04:26:14.215Z,4.00
2023-12-23T04:28:41.056Z,2.20
2023-12-23T04:31:08.025Z,2.10
2023-12-23T04:33:35.412Z,3.30
2023-12-23T04:36:03.832Z,2.90
2023-12-23T04:38:30.640Z,2.10
2023-12-23T04:40:57.393Z,4.40
2023-12-23T04:43:24.219Z,2.60
2023-12-23T04:45:50.959Z,2.50
2023-12-23T04:48:17.749Z,5.20
2023-12-23T04:50:44.458Z,3.60
2023-12-23T04:53:11.236Z,4.00
2023-12-23T04:55:38.038Z,3.30
2023-12-23T04:58:04.722Z,4.20
2023-12-23T05:00:31.492Z,5.20
2023-12-23T05:02:58.216Z,5.50
2023-12-23T05:05:25.119Z,3.70
2023-12-23T05:07:54.213Z,3.20
2023-12-23T05:10:21.396Z,7.90
2023-12-23T05:12:48.282Z,4.50
2023-12-23T05:15:15.185Z,2.60
2023-12-23T05:17:42.030Z,4.40
2023-12-23T05:20:10.790Z,2.90
2023-12-23T05:22:37.589Z,6.50
2023-12-23T05:25:04.967Z,3.60
2023-12-23T05:27:31.725Z,5.10
2023-12-23T05:29:58.400Z,4.20
2023-12-23T05:32:25.981Z,6.40
2023-12-23T05:34:53.654Z,4.10
2023-12-23T05:37:20.391Z,3.40
2023-12-23T05:39:48.872Z,5.50
2023-12-23T05:42:15.639Z,4.20
2023-12-23T05:44:42.438Z,4.90
2023-12-23T05:47:09.236Z,6.10
2023-12-23T05:49:35.982Z,3.90
2023-12-23T05:52:02.865Z,4.20
2023-12-23T05:54:29.596Z,4.60
2023-12-23T05:56:56.369Z,8.80
2023-12-23T05:59:24.635Z,5.60
2023-12-23T06:01:52.617Z,5.90
2023-12-23T06:04:19.372Z,4.90
2023-12-23T06:06:46.066Z,4.40
2023-12-23T06:09:12.792Z,5.20
2023-12-23T06:11:39.567Z,6.50
2023-12-23T06:14:06.450Z,7.80
2023-12-23T06:16:40.493Z,7.20
2023-12-23T06:19:07.731Z,5.60
2023-12-23T06:21:34.667Z,3.60
2023-12-23T06:24:01.696Z,3.20
2023-12-23T06:26:28.454Z,6.20
2023-12-23T06:28:55.251Z,5.70
2023-12-23T06:31:22.894Z,5.70
2023-12-23T06:33:49.715Z,3.50
2023-12-23T06:36:16.871Z,5.30
2023-12-23T06:38:43.652Z,6.40
2023-12-23T06:41:11.326Z,4.90
2023-12-23T06:43:46.196Z,5.90
2023-12-23T06:46:19.063Z,4.10
2023-12-23T06:48:45.993Z,5.50
2023-12-23T06:51:12.886Z,5.00
2023-12-23T06:53:39.775Z,6.30
2023-12-23T06:56:07.557Z,5.70
2023-12-23T06:58:34.544Z,5.60
2023-12-23T07:01:02.249Z,4.40
2023-12-23T07:03:29.099Z,4.50
2023-12-23T07:05:55.992Z,5.20
2023-12-23T07:08:23.551Z,5.60
2023-12-23T07:10:50.828Z,3.10
2023-12-23T07:13:17.630Z,7.90
2023-12-23T07:15:44.352Z,6.40
2023-12-23T07:18:11.408Z,4.70
2023-12-23T07:20:40.441Z,4.40
2023-12-23T07:23:07.221Z,3.20
2023-12-23T07:25:33.959Z,4.40
2023-12-23T07:28:00.707Z,4.50
2023-12-23T07:30:27.502Z,4.20
2023-12-23T07:32:54.547Z,6.10
2023-12-23T07:35:22.383Z,3.80
2023-12-23T07:37:51.508Z,3.70
2023-12-23T07:40:18.253Z,5.00
2023-12-23T07:42:44.956Z,5.90
2023-12-23T07:45:12.333Z,3.00
2023-12-23T07:47:39.077Z,6.10
2023-12-23T07:50:06.267Z,7.40
2023-12-23T07:52:33.097Z,4.30
2023-12-23T07:54:59.963Z,4.40
2023-12-23T07:57:26.784Z,5.40
2023-12-23T07:59:53.571Z,6.50
2023-12-23T08:02:20.493Z,3.90
2023-12-23T08:04:47.297Z,4.60
2023-12-23T08:07:14.082Z,7.70
2023-12-23T08:09:40.866Z,6.90
2023-12-23T08:12:08.589Z,4.20
2023-12-23T08:14:35.383Z,4.10
2023-12-23T08:17:02.177Z,8.20
2023-12-23T08:19:29.021Z,5.30
2023-12-23T08:21:55.877Z,5.30
2023-12-23T08:24:23.022Z,6.50
2023-12-23T08:26:50.258Z,5.20
2023-12-23T08:29:16.980Z,5.60
2023-12-23T08:31:45.120Z,5.60
2023-12-23T08:34:12.924Z,6.90
2023-12-23T08:36:39.662Z,5.30
2023-12-23T08:39:06.501Z,6.70
2023-12-23T08:41:35.828Z,5.80
2023-12-23T08:44:05.325Z,7.30
2023-12-23T08:46:33.795Z,4.80
2023-12-23T08:49:03.582Z,3.60
2023-12-23T08:51:32.371Z,4.10
2023-12-23T08:53:59.136Z,7.50
2023-12-23T08:56:26.019Z,8.30
2023-12-23T08:58:52.928Z,6.90
2023-12-23T09:01:19.668Z,4.60
2023-12-23T09:03:46.505Z,6.20
2023-12-23T09:06:13.414Z,4.40
2023-12-23T09:08:40.323Z,8.80
2023-12-23T09:11:07.167Z,4.90
2023-12-23T09:13:33.975Z,6.80
2023-12-23T09:16:03.775Z,7.80
2023-12-23T09:18:30.954Z,8.30
2023-12-23T09:20:57.825Z,4.70
2023-12-23T09:23:24.734Z,4.80
2023-12-23T09:25:52.418Z,6.40
2023-12-23T09:28:19.145Z,5.40
2023-12-23T09:30:45.907Z,4.60
2023-12-23T09:33:12.977Z,3.90
2023-12-23T09:35:39.961Z,6.80
2023-12-23T09:38:06.748Z,5.80
2023-12-23T09:40:33.577Z,4.80
2023-12-23T09:43:00.438Z,5.60
2023-12-23T09:45:27.567Z,4.60
2023-12-23T09:47:54.620Z,6.00
2023-12-23T09:50:21.805Z,6.70
2023-12-23T09:52:53.073Z,5.00
2023-12-23T09:55:20.498Z,6.50
2023-12-23T09:57:47.722Z,7.40
2023-12-23T10:00:15.125Z,5.90
2023-12-23T10:02:42.062Z,5.90
2023-12-23T10:05:09.855Z,5.50
2023-12-23T10:07:37.771Z,5.70
2023-12-23T10:10:05.935Z,8.40
2023-12-23T10:12:33.882Z,5.50
2023-12-23T10:15:00.566Z,5.40
2023-12-23T10:17:27.352Z,4.60
2023-12-23T10:19:56.298Z,6.10
2023-12-23T10:22:26.669Z,5.30
2023-12-23T10:24:53.359Z,6.10
2023-12-23T10:27:21.075Z,9.20
2023-12-23T10:29:53.676Z,5.90
2023-12-23T10:32:28.460Z,4.30
2023-12-23T10:35:00.807Z,5.50
2023-12-23T10:37:30.360Z,3.70
2023-12-23T10:40:21.222Z,6.10
2023-12-23T10:42:49.839Z,4.60
2023-12-23T10:45:17.124Z,5.60
2023-12-23T10:47:45.175Z,3.60
2023-12-23T10:50:15.442Z,5.10
2023-12-23T10:52:42.608Z,7.00
2023-12-23T10:55:12.649Z,6.10
2023-12-23T10:57:40.528Z,5.60
2023-12-23T11:00:10.202Z,6.50
2023-12-23T11:02:38.466Z,6.00
2023-12-23T11:05:09.449Z,8.20
2023-12-23T11:07:44.669Z,6.30
2023-12-23T11:10:13.562Z,7.80
2023-12-23T11:12:42.840Z,4.30
2023-12-23T11:15:10.038Z,6.50
2023-12-23T11:17:45.894Z,5.70
2023-12-23T11:20:37.580Z,8.90
2023-12-23T11:23:33.673Z,6.10
2023-12-23T11:26:02.725Z,6.10
2023-12-23T11:28:36.756Z,5.50
2023-12-23T11:31:04.353Z,5.20
2023-12-23T11:33:33.783Z,7.40
2023-12-23T11:36:02.986Z,4.20
2023-12-23T11:38:50.796Z,5.20
2023-12-23T11:41:21.199Z,4.40
2023-12-23T11:43:52.757Z,5.60
2023-12-23T11:46:23.236Z,5.90
2023-12-23T11:48:50.235Z,4.70
2023-12-23T11:51:17.300Z,3.60
2023-12-23T11:53:44.326Z,5.30
2023-12-23T11:56:11.343Z,7.10
2023-12-23T11:58:38.389Z,4.30
2023-12-23T12:01:05.287Z,4.40
2023-12-23T12:03:32.120Z,4.90
2023-12-23T12:06:00.015Z,5.80
2023-12-23T12:08:27.323Z,3.30
2023-12-23T12:11:02.137Z,4.90
2023-12-23T12:13:34.552Z,3.80
2023-12-23T12:16:01.269Z,4.60
2023-12-23T12:18:28.183Z,3.90
2023-12-23T12:20:55.369Z,6.60
2023-12-23T12:23:22.310Z,3.90
2023-12-23T12:25:52.716Z,5.90
2023-12-23T12:28:19.893Z,5.30
2023-12-23T12:30:47.962Z,6.60
2023-12-23T12:33:15.977Z,6.30
2023-12-23T12:35:42.875Z,3.40
2023-12-23T12:38:16.862Z,3.80
2023-12-23T12:40:50.125Z,2.80
2023-12-23T12:43:16.994Z,5.00
2023-12-23T12:45:43.679Z,3.20
2023-12-23T12:48:11.662Z,3.90
2023-12-23T12:50:42.916Z,2.50
2023-12-23T12:53:09.857Z,3.60
2023-12-23T12:55:36.661Z,4.00
2023-12-23T12:58:03.966Z,5.10
2023-12-23T13:00:30.709Z,4.30
2023-12-23T13:02:57.910Z,3.80
2023-12-23T13:05:24.947Z,3.90
2023-12-23T13:07:53.056Z,4.00
2023-12-23T13:10:23.471Z,4.20
2023-12-23T13:12:50.673Z,3.40
2023-12-23T13:15:17.866Z,2.70
2023-12-23T13:17:44.789Z,4.20
2023-12-23T13:20:12.747Z,2.60
2023-12-23T13:22:39.572Z,3.80
2023-12-23T13:25:09.865Z,4.60
2023-12-23T13:27:36.638Z,2.60
2023-12-23T13:30:04.447Z,4.00
2023-12-23T13:32:33.587Z,3.50
2023-12-23T13:35:01.754Z,2.20
2023-12-23T13:37:28.504Z,4.80
2023-12-23T13:39:55.280Z,2.40
2023-12-23T13:42:22.210Z,2.60
2023-12-23T13:44:48.928Z,3.10
2023-12-23T13:47:15.677Z,2.40
2023-12-23T13:49:42.508Z,2.90
2023-12-23T13:52:09.472Z,3.10
2023-12-23T13:54:36.487Z,4.60
2023-12-23T13:57:03.581Z,4.00
2023-12-23T13:59:30.303Z,1.80
2023-12-23T14:01:57.124Z,3.60
2023-12-23T14:04:23.907Z,3.00
2023-12-23T14:06:50.755Z,1.90
2023-12-23T14:09:18.009Z,2.60
2023-12-23T14:11:45.154Z,2.70
2023-12-23T14:14:12.013Z,1.90
2023-12-23T14:16:38.740Z,1.50
2023-12-23T14:19:05.598Z,2.50
2023-12-23T14:21:33.650Z,2.60
2023-12-23T14:24:00.431Z,1.90
2023-12-23T14:26:27.905Z,2.60
2023-12-23T14:28:56.745Z,2.10
2023-12-23T14:31:24.517Z,2.80
2023-12-23T14:33:54.098Z,2.10
2023-12-23T14:36:20.990Z,2.40
2023-12-23T14:38:47.744Z,2.90
2023-12-23T14:41:14.869Z,2.50
2023-12-23T14:43:41.727Z,2.30
2023-12-23T14:46:09.462Z,4.10
2023-12-23T14:48:36.206Z,2.00
2023-12-23T14:51:03.184Z,1.90
2023-12-23T14:53:30.136Z,3.00
2023-12-23T14:55:56.904Z,3.60
2023-12-23T14:58:23.613Z,4.40
2023-12-23T15:00:50.500Z,2.40
2023-12-23T15:03:17.445Z,2.80
2023-12-23T15:05:44.359Z,2.30
2023-12-23T15:08:11.341Z,3.70
2023-12-23T15:10:38.319Z,2.10
2023-12-23T15:13:07.179Z,2.20
2023-12-23T15:15:34.863Z,2.10
2023-12-23T15:18:03.151Z,2.10
2023-12-23T15:20:30.137Z,2.20
2023-12-23T15:22:57.071Z,2.60
2023-12-23T15:25:23.846Z,3.30
2023-12-23T15:27:50.572Z,2.30
2023-12-23T15:30:17.568Z,2.50
2023-12-23T15:32:44.367Z,1.80
2023-12-23T15:35:11.353Z,2.00
2023-12-23T15:37:38.189Z,2.70
2023-12-23T15:40:05.988Z,2.30
2023-12-23T15:42:32.739Z,1.70
2023-12-23T15:44:59.462Z,2.40
2023-12-23T15:47:26.300Z,2.50
2023-12-23T15:49:53.359Z,1.70
2023-12-23T15:52:20.117Z,2.40
2023-12-23T15:54:48.957Z,1.60
2023-12-23T15:57:16.342Z,2.40
2023-12-23T15:59:43.936Z,2.40
2023-12-23T16:02:10.650Z,2.40
2023-12-23T16:04:38.011Z,2.40
2023-12-23T16:07:04.767Z,3.50
2023-12-23T16:09:31.465Z,3.30
2023-12-23T16:11:58.260Z,2.50
2023-12-23T16:14:25.147Z,2.50
2023-12-23T16:16:51.940Z,2.50
2023-12-23T16:19:18.720Z,2.70
2023-12-23T16:21:45.450Z,2.20
2023-12-23T16:24:12.643Z,2.40
2023-12-23T16:26:40.337Z,3.30
2023-12-23T16:29:07.112Z,2.90
2023-12-23T16:31:33.925Z,3.20
2023-12-23T16:34:01.048Z,4.60
2023-12-23T16:36:27.849Z,2.80
2023-12-23T16:38:54.542Z,4.20
2023-12-23T16:41:21.257Z,2.40
2023-12-23T16:43:48.241Z,2.70
2023-12-23T16:46:14.942Z,4.90
2023-12-23T16:48:41.854Z,3.80
2023-12-23T16:51:08.668Z,3.80
2023-12-23T16:53:36.411Z,3.40
2023-12-23T16:56:05.483Z,3.20
2023-12-23T16:58:33.132Z,3.00
2023-12-23T17:00:59.996Z,3.10
2023-12-23T17:03:26.811Z,3.20
2023-12-23T17:05:53.743Z,3.40
2023-12-23T17:08:20.687Z,3.30
2023-12-23T17:10:47.609Z,4.10
2023-12-23T17:13:15.342Z,4.00
2023-12-23T17:15:42.108Z,4.20
2023-12-23T17:18:08.919Z,3.90
2023-12-23T17:20:35.792Z,3.10
2023-12-23T17:23:02.652Z,2.80
2023-12-23T17:25:29.345Z,4.10
2023-12-23T17:27:56.999Z,2.70
2023-12-23T17:30:23.988Z,3.60
2023-12-23T17:32:51.318Z,2.90
2023-12-23T17:35:18.455Z,2.70
2023-12-23T17:37:45.255Z,6.20
2023-12-23T17:40:12.197Z,3.30
2023-12-23T17:42:39.032Z,3.90
2023-12-23T17:45:06.344Z,3.60
2023-12-23T17:47:35.312Z,3.80
2023-12-23T17:50:02.249Z,2.40
2023-12-23T17:52:29.086Z,3.60
2023-12-23T17:54:55.939Z,4.10
2023-12-23T17:57:22.678Z,4.80
2023-12-23T17:59:49.381Z,3.80
2023-12-23T18:02:17.597Z,3.30
2023-12-23T18:04:44.337Z,3.60
2023-12-23T18:07:11.095Z,3.60
2023-12-23T18:09:37.846Z,3.20
2023-12-23T18:12:05.105Z,3.30
2023-12-23T18:14:31.882Z,4.10
2023-12-23T18:16:58.699Z,2.60
2023-12-23T18:19:25.473Z,3.10
2023-12-23T18:21:52.304Z,3.60
2023-12-23T18:24:19.391Z,4.00
2023-12-23T18:26:46.105Z,2.80
2023-12-23T18:29:12.883Z,4.10
2023-12-23T18:31:39.781Z,3.80
2023-12-23T18:34:06.660Z,3.60
2023-12-23T18:36:33.444Z,4.10
2023-12-23T18:39:00.360Z,6.80
2023-12-23T18:41:27.287Z,6.40
2023-12-23T18:43:54.100Z,4.60
2023-12-23T18:46:20.969Z,5.00
2023-12-23T18:48:47.810Z,5.50
2023-12-23T18:51:16.186Z,4.30
2023-12-23T18:53:44.092Z,4.40
2023-12-23T18:56:11.877Z,5.60
2023-12-23T18:58:39.294Z,3.90
2023-12-23T19:01:06.074Z,4.00
2023-12-23T19:03:32.992Z,6.30
2023-12-23T19:05:59.990Z,3.90
2023-12-23T19:08:27.115Z,6.40
2023-12-23T19:10:57.448Z,5.20
2023-12-23T19:13:24.709Z,4.80
2023-12-23T19:15:51.481Z,5.90
2023-12-23T19:18:18.425Z,5.00
2023-12-23T19:20:46.458Z,3.70
2023-12-23T19:23:13.242Z,6.90
2023-12-23T19:25:39.953Z,5.10
2023-12-23T19:28:07.090Z,3.90
2023-12-23T19:30:33.843Z,6.10
2023-12-23T19:33:00.813Z,4.10
2023-12-23T19:35:27.676Z,3.00
2023-12-23T19:37:54.528Z,4.00
2023-12-23T19:40:21.294Z,4.00
2023-12-23T19:42:48.212Z,4.50
2023-12-23T19:45:15.046Z,3.60
2023-12-23T19:47:44.161Z,3.00
2023-12-23T19:50:11.000Z,3.10
2023-12-23T19:52:38.016Z,3.50
2023-12-23T19:55:05.490Z,2.80
2023-12-23T19:57:32.563Z,3.30
2023-12-23T19:59:59.275Z,3.50
2023-12-23T20:02:26.119Z,3.20
2023-12-23T20:04:52.850Z,4.00
2023-12-23T20:07:19.669Z,2.80
2023-12-23T20:09:46.344Z,4.10
2023-12-23T20:12:13.104Z,3.30
2023-12-23T20:14:40.211Z,4.50
2023-12-23T20:17:06.999Z,4.50
2023-12-23T20:19:33.719Z,2.70
2023-12-23T20:22:00.523Z,3.20
2023-12-23T20:24:27.700Z,3.00
2023-12-23T20:26:54.916Z,3.10
2023-12-23T20:29:21.765Z,3.60
2023-12-23T20:31:48.492Z,3.80
2023-12-23T20:34:15.426Z,3.10
2023-12-23T20:36:46.020Z,5.50
2023-12-23T20:39:25.710Z,4.30
2023-12-23T20:41:55.660Z,4.90
2023-12-23T20:44:22.416Z,4.40
2023-12-23T20:46:51.217Z,4.00
2023-12-23T20:49:18.040Z,2.90
2023-12-23T20:51:45.199Z,4.60
2023-12-23T20:54:12.285Z,3.60
2023-12-23T20:56:39.073Z,4.30
2023-12-23T20:59:05.774Z,3.60
2023-12-23T21:01:32.464Z,2.80
2023-12-23T21:03:59.933Z,3.90
2023-12-23T21:06:26.892Z,3.00
2023-12-23T21:08:53.872Z,4.80
2023-12-23T21:11:20.726Z,4.60
2023-12-23T21:13:47.646Z,3.80
2023-12-23T21:16:14.567Z,4.00
2023-12-23T21:18:45.561Z,3.80
2023-12-23T21:21:12.913Z,3.10
2023-12-23T21:23:39.745Z,3.60
2023-12-23T21:26:22.236Z,3.00
2023-12-23T21:28:49.229Z,3.90
2023-12-23T21:31:16.142Z,2.50
2023-12-23T21:33:43.017Z,3.80
2023-12-23T21:36:10.244Z,3.30
2023-12-23T21:38:37.023Z,3.30
2023-12-23T21:41:03.816Z,3.00
2023-12-23T21:43:30.597Z,2.70
2023-12-23T21:45:57.279Z,2.00
2023-12-23T21:48:24.164Z,2.30
2023-12-23T21:50:54.401Z,2.20
2023-12-23T21:53:24.431Z,2.70
2023-12-23T21:55:51.436Z,1.90
2023-12-23T21:58:18.345Z,2.00
2023-12-23T22:00:46.407Z,3.20
2023-12-23T22:03:13.385Z,2.60
2023-12-23T22:05:40.165Z,2.10
2023-12-23T22:08:07.530Z,3.00
2023-12-23T22:10:34.256Z,2.60
2023-12-23T22:13:00.937Z,3.50
2023-12-23T22:15:27.680Z,3.50
2023-12-23T22:17:54.480Z,3.40
2023-12-23T22:20:21.957Z,4.90
2023-12-23T22:22:48.880Z,3.10
2023-12-23T22:25:17.952Z,2.70
2023-12-23T22:27:44.677Z,2.70
2023-12-23T22:30:11.912Z,2.50
2023-12-23T22:32:38.802Z,2.40
2023-12-23T22:35:06.334Z,2.10
2023-12-23T22:37:33.083Z,2.90
2023-12-23T22:40:00.523Z,3.10
2023-12-23T22:42:27.750Z,2.90
2023-12-23T22:44:57.705Z,3.10
2023-12-23T22:47:24.529Z,2.40
2023-12-23T22:49:51.346Z,2.40
2023-12-23T22:52:18.952Z,3.10
2023-12-23T22:54:45.660Z,3.60
2023-12-23T22:57:12.509Z,4.10
2023-12-23T22:59:39.552Z,3.50
2023-12-23T23:02:06.385Z,3.10
2023-12-23T23:04:33.666Z,4.70
2023-12-23T23:07:00.532Z,3.00
2023-12-23T23:09:30.125Z,4.00
2023-12-23T23:11:57.767Z,3.30
2023-12-23T23:14:24.735Z,3.70
2023-12-23T23:16:51.448Z,2.70
2023-12-23T23:19:18.250Z,3.40
2023-12-23T23:21:44.993Z,3.10
2023-12-23T23:24:11.675Z,2.80
2023-12-23T23:26:38.389Z,3.80
2023-12-23T23:29:05.334Z,2.60
2023-12-23T23:31:32.170Z,3.60
2023-12-23T23:33:59.063Z,3.20
2023-12-23T23:36:26.279Z,3.90
2023-12-23T23:38:53.017Z,5.20
2023-12-23T23:41:20.811Z,3.00
2023-12-23T23:43:47.565Z,3.10
2023-12-23T23:46:16.225Z,3.60
2023-12-23T23:48:44.353Z,5.60
2023-12-23T23:51:21.516Z,3.00
2023-12-23T23:53:49.050Z,3.30
2023-12-23T23:56:19.785Z,3.30
2023-12-23T23:58:48.638Z,3.70
